createdAt,value
2019-05-02T00:01:10.291Z,23.52
2019-05-02T00:03:42.902Z,23.32
2019-05-02T00:06:13.119Z,21.65
2019-05-02T00:08:43.346Z,22.42
2019-05-02T00:11:13.797Z,22.93
2019-05-02T00:13:44.495Z,25.10
2019-05-02T00:16:15.449Z,24.60
2019-05-02T00:18:45.770Z,22.65
2019-05-02T00:21:16.427Z,23.60
2019-05-02T00:23:46.875Z,22.95
2019-05-02T00:26:17.055Z,22.97
2019-05-02T00:28:49.741Z,15.90
2019-05-02T00:31:21.537Z,24.00
2019-05-02T00:33:51.882Z,25.88
2019-05-02T00:36:22.059Z,25.82
2019-05-02T00:38:52.286Z,27.02
2019-05-02T00:41:42.514Z,27.87
2019-05-02T00:44:13.046Z,27.65
2019-05-02T00:46:43.262Z,29.07
2019-05-02T00:49:13.470Z,27.65
2019-05-02T00:51:44.934Z,27.70
2019-05-02T00:54:19.265Z,29.10
2019-05-02T00:56:47.054Z,28.12
2019-05-02T00:59:17.259Z,27.50
2019-05-02T01:01:50.925Z,26.85
2019-05-02T01:04:23.261Z,28.30
2019-05-02T01:06:54.686Z,28.30
2019-05-02T01:11:55.274Z,30.52
2019-05-02T01:14:27.032Z,35.28
2019-05-02T01:16:57.390Z,35.03
2019-05-02T01:19:27.671Z,36.23
2019-05-02T01:21:57.873Z,32.73
2019-05-02T01:24:29.377Z,34.70
2019-05-02T01:27:16.603Z,34.30
2019-05-02T01:29:49.819Z,34.60
2019-05-02T01:32:30.147Z,35.80
2019-05-02T01:34:59.063Z,36.20
2019-05-02T01:37:32.277Z,37.40
2019-05-02T01:40:02.617Z,38.05
2019-05-02T01:45:06.739Z,38.48
2019-05-02T01:47:37.159Z,38.15
2019-05-02T01:50:07.459Z,38.23
2019-05-02T01:52:37.807Z,41.37
2019-05-02T01:55:08.079Z,39.33
2019-05-02T01:57:39.922Z,36.58
2019-05-02T02:00:11.854Z,36.00
2019-05-02T02:02:42.036Z,36.00
2019-05-02T02:05:12.358Z,39.88
2019-05-02T02:07:42.620Z,36.48
2019-05-02T02:10:15.012Z,36.00
2019-05-02T02:13:02.920Z,36.65
2019-05-02T02:15:16.784Z,36.30
2019-05-02T02:17:51.263Z,36.30
2019-05-02T02:20:23.238Z,41.05
2019-05-02T02:23:14.108Z,39.98
2019-05-02T02:25:45.835Z,36.68
2019-05-02T02:28:34.411Z,37.95
2019-05-02T02:31:07.760Z,46.00
2019-05-02T02:33:40.815Z,45.67
2019-05-02T02:36:08.507Z,45.33
2019-05-02T02:38:38.779Z,46.73
2019-05-02T02:41:17.546Z,42.62
2019-05-02T02:43:54.629Z,44.10
2019-05-02T02:46:22.935Z,45.70
2019-05-02T02:48:53.145Z,41.58
2019-05-02T02:51:25.767Z,40.28
2019-05-02T02:54:02.700Z,39.05
2019-05-02T02:56:27.232Z,40.40
2019-05-02T02:58:57.433Z,41.35
2019-05-02T03:01:29.283Z,41.83
2019-05-02T03:04:01.959Z,42.78
2019-05-02T03:06:31.646Z,42.55
2019-05-02T03:09:01.836Z,42.70
2019-05-02T03:11:41.336Z,45.38
2019-05-02T03:14:19.577Z,43.40
2019-05-02T03:16:49.937Z,44.05
2019-05-02T03:19:21.408Z,45.67
2019-05-02T03:22:01.101Z,41.30
2019-05-02T03:24:28.650Z,46.28
2019-05-02T03:26:59.018Z,51.77
2019-05-02T03:29:39.265Z,49.65
2019-05-02T03:32:15.054Z,50.55
2019-05-02T03:34:47.163Z,49.45
2019-05-02T03:37:10.814Z,51.75
2019-05-02T03:39:37.740Z,52.75
2019-05-02T03:42:08.002Z,57.13
2019-05-02T03:44:38.216Z,60.83
2019-05-02T03:47:08.409Z,63.38
2019-05-02T03:49:41.037Z,61.77
2019-05-02T03:52:10.496Z,61.15
2019-05-02T03:54:49.761Z,67.47
2019-05-02T03:57:14.304Z,68.85
2019-05-02T03:59:44.506Z,66.17
2019-05-02T04:02:20.338Z,67.65
2019-05-02T04:04:46.614Z,64.85
2019-05-02T04:07:16.828Z,63.52
2019-05-02T04:09:47.044Z,61.53
2019-05-02T04:12:21.243Z,66.80
2019-05-02T04:14:55.605Z,58.78
2019-05-02T04:17:21.086Z,59.58
2019-05-02T04:19:51.292Z,57.80
2019-05-02T04:22:21.894Z,54.75
2019-05-02T04:24:56.772Z,54.85
2019-05-02T04:27:27.667Z,52.13
2019-05-02T04:29:57.279Z,42.73
2019-05-02T04:32:30.457Z,49.93
2019-05-02T04:35:00.663Z,49.20
2019-05-02T04:37:34.309Z,48.25
2019-05-02T04:40:08.104Z,45.35
2019-05-02T04:42:39.142Z,48.13
2019-05-02T04:45:21.646Z,46.60
2019-05-02T04:47:42.501Z,47.15
2019-05-02T04:50:18.124Z,47.43
2019-05-02T04:52:48.426Z,49.10
2019-05-02T04:55:26.147Z,51.75
2019-05-02T04:57:50.995Z,49.80
2019-05-02T05:00:29.196Z,49.77
2019-05-02T05:02:59.434Z,49.85
2019-05-02T05:05:31.276Z,44.98
2019-05-02T05:08:01.587Z,46.63
2019-05-02T05:10:39.952Z,46.48
2019-05-02T05:13:03.731Z,43.50
2019-05-02T05:15:41.128Z,43.15
2019-05-02T05:18:11.821Z,40.67
2019-05-02T05:20:40.354Z,40.85
2019-05-02T05:23:10.406Z,41.88
2019-05-02T05:25:42.410Z,41.33
2019-05-02T05:28:12.622Z,41.28
2019-05-02T05:30:45.424Z,40.67
2019-05-02T05:33:14.715Z,42.73
2019-05-02T05:35:50.967Z,40.03
2019-05-02T05:38:18.210Z,39.70
2019-05-02T05:40:50.302Z,41.18
2019-05-02T05:43:20.764Z,43.73
2019-05-02T05:45:56.604Z,29.85
2019-05-02T05:48:22.870Z,42.43
2019-05-02T05:50:53.091Z,41.10
2019-05-02T05:53:24.567Z,42.00
2019-05-02T05:55:58.909Z,40.95
2019-05-02T05:58:28.398Z,41.40
2019-05-02T06:00:59.701Z,40.70
2019-05-02T06:03:33.931Z,40.55
2019-05-02T06:06:01.882Z,42.25
2019-05-02T06:08:32.110Z,42.83
2019-05-02T06:11:02.366Z,43.35
2019-05-02T06:13:32.585Z,41.23
2019-05-02T06:16:03.405Z,43.45
2019-05-02T06:21:08.826Z,43.63
2019-05-02T06:23:41.250Z,42.15
2019-05-02T06:26:13.699Z,42.90
2019-05-02T06:28:43.263Z,43.15
2019-05-02T06:31:17.073Z,42.88
2019-05-02T06:33:46.594Z,44.67
2019-05-02T06:36:16.862Z,43.50
2019-05-02T06:38:47.110Z,41.90
2019-05-02T06:41:20.930Z,44.15
2019-05-02T06:43:49.495Z,43.60
2019-05-02T06:46:21.964Z,43.78
2019-05-02T06:48:52.238Z,43.58
2019-05-02T06:51:22.816Z,41.73
2019-05-02T06:53:53.021Z,43.95
2019-05-02T06:56:23.291Z,44.18
2019-05-02T06:58:53.518Z,44.10
2019-05-02T07:01:23.746Z,43.58
2019-05-02T07:03:53.964Z,45.52
2019-05-02T07:06:24.422Z,45.45
2019-05-02T07:08:54.990Z,46.02
2019-05-02T07:11:25.442Z,46.73
2019-05-02T07:14:31.898Z,46.27
2019-05-02T07:17:05.632Z,47.33
2019-05-02T07:19:38.390Z,46.10
2019-05-02T07:22:09.871Z,46.10
2019-05-02T07:24:40.088Z,43.00
2019-05-02T07:27:10.357Z,44.53
2019-05-02T07:29:40.823Z,42.80
2019-05-02T07:32:11.514Z,43.87
2019-05-02T07:34:44.144Z,41.48
2019-05-02T07:37:14.020Z,43.52
2019-05-02T07:39:44.278Z,41.68
2019-05-02T07:42:14.470Z,40.15
2019-05-02T07:44:44.693Z,40.60
2019-05-02T07:47:15.075Z,39.18
2019-05-02T07:49:45.292Z,37.70
2019-05-02T07:52:15.574Z,38.23
2019-05-02T07:54:45.819Z,34.78
2019-05-02T07:57:16.015Z,36.10
2019-05-02T07:59:46.271Z,34.35
2019-05-02T08:02:20.200Z,35.15
2019-05-02T08:04:48.499Z,33.95
2019-05-02T08:07:21.174Z,35.28
2019-05-02T08:09:50.652Z,33.25
2019-05-02T08:12:20.985Z,35.50
2019-05-02T08:15:13.196Z,33.98
2019-05-02T08:17:41.299Z,31.25
2019-05-02T08:20:13.595Z,30.62
2019-05-02T08:22:44.062Z,31.65
2019-05-02T08:25:15.322Z,30.12
2019-05-02T08:27:47.182Z,30.08
2019-05-02T08:30:40.316Z,32.73
2019-05-02T08:33:07.370Z,28.55
2019-05-02T08:35:37.578Z,28.12
2019-05-02T08:38:12.632Z,27.93
2019-05-02T08:40:42.422Z,28.92
2019-05-02T08:43:11.684Z,29.92
2019-05-02T08:48:12.550Z,32.00
2019-05-02T08:50:42.739Z,33.23
2019-05-02T08:53:14.285Z,32.15
2019-05-02T08:55:45.280Z,29.92
2019-05-02T08:58:17.132Z,29.10
2019-05-02T09:00:47.651Z,29.23
2019-05-02T09:03:18.179Z,30.52
2019-05-02T09:05:48.373Z,30.15
2019-05-02T09:08:18.681Z,31.05
2019-05-02T09:10:48.882Z,30.70
2019-05-02T09:13:26.443Z,30.55
2019-05-02T09:15:53.965Z,33.05
2019-05-02T09:18:29.996Z,33.95
2019-05-02T09:20:56.688Z,32.10
2019-05-02T09:23:31.940Z,32.50
2019-05-02T09:25:59.400Z,33.33
2019-05-02T09:28:29.639Z,33.43
2019-05-02T09:31:05.006Z,33.98
2019-05-02T09:33:32.267Z,35.68
2019-05-02T09:36:08.375Z,33.53
2019-05-02T09:38:38.630Z,33.58
2019-05-02T09:41:16.982Z,34.58
2019-05-02T09:43:42.534Z,32.98
2019-05-02T09:46:16.501Z,33.33
2019-05-02T09:48:44.775Z,31.87
2019-05-02T09:51:17.501Z,32.87
2019-05-02T09:53:47.119Z,32.83
2019-05-02T09:56:17.312Z,33.30
2019-05-02T09:58:49.306Z,32.10
2019-05-02T10:01:22.375Z,33.33
2019-05-02T10:03:52.694Z,33.40
2019-05-02T10:06:23.019Z,34.60
2019-05-02T10:08:54.742Z,33.00
2019-05-02T10:11:26.271Z,32.05
2019-05-02T10:13:56.630Z,33.25
2019-05-02T10:16:27.403Z,31.27
2019-05-02T10:19:00.351Z,32.75
2019-05-02T10:21:31.668Z,30.48
2019-05-02T10:24:03.700Z,33.53
2019-05-02T10:26:49.379Z,34.10
2019-05-02T10:29:21.004Z,36.00
2019-05-02T10:31:52.647Z,36.50
2019-05-02T10:34:23.084Z,35.73
2019-05-02T10:36:58.566Z,38.67
2019-05-02T10:39:28.520Z,38.45
2019-05-02T10:41:57.664Z,36.10
2019-05-02T10:44:34.863Z,37.33
2019-05-02T10:47:03.404Z,33.85
2019-05-02T10:49:35.257Z,33.45
2019-05-02T10:52:05.468Z,33.28
2019-05-02T10:54:37.553Z,32.98
2019-05-02T10:57:07.585Z,33.67
2019-05-02T10:59:37.819Z,34.40
2019-05-02T11:02:16.532Z,36.25
2019-05-02T11:04:52.492Z,36.42
2019-05-02T11:07:26.355Z,38.48
2019-05-02T11:09:57.336Z,37.88
2019-05-02T11:12:40.287Z,37.48
2019-05-02T11:15:08.234Z,38.25
2019-05-02T11:17:42.222Z,39.63
2019-05-02T11:20:12.575Z,41.15
2019-05-02T11:22:42.877Z,44.50
2019-05-02T11:25:13.073Z,45.15
2019-05-02T11:27:43.282Z,49.03
2019-05-02T11:30:16.770Z,46.70
2019-05-02T11:32:45.452Z,51.68
2019-05-02T11:35:15.668Z,48.58
2019-05-02T11:37:46.161Z,52.13
2019-05-02T11:40:16.430Z,52.53
2019-05-02T11:42:47.721Z,51.50
2019-05-02T11:45:17.927Z,53.23
2019-05-02T11:48:11.913Z,51.20
2019-05-02T11:50:42.248Z,54.08
2019-05-02T11:53:23.276Z,57.65
2019-05-02T11:55:44.600Z,57.83
2019-05-02T11:58:14.895Z,60.43
2019-05-02T12:00:49.429Z,57.27
2019-05-02T12:03:18.744Z,60.28
2019-05-02T12:05:48.960Z,61.75
2019-05-02T12:08:19.174Z,63.30
2019-05-02T12:10:49.377Z,64.40
2019-05-02T12:13:19.608Z,65.92
2019-05-02T12:15:51.764Z,65.52
2019-05-02T12:18:23.277Z,67.53
2019-05-02T12:20:53.713Z,62.78
2019-05-02T12:23:24.016Z,66.57
2019-05-02T12:25:54.315Z,67.82
2019-05-02T12:28:24.586Z,63.73
2019-05-02T12:30:54.858Z,67.82
2019-05-02T12:33:26.948Z,71.80
2019-05-02T12:35:57.132Z,66.35
2019-05-02T12:38:27.353Z,56.28
2019-05-02T12:40:58.002Z,61.70
2019-05-02T12:43:28.354Z,59.20
2019-05-02T12:45:58.545Z,54.50
2019-05-02T12:48:28.838Z,53.33
2019-05-02T12:50:59.026Z,54.18
2019-05-02T12:53:29.247Z,55.50
2019-05-02T12:55:59.439Z,56.53
2019-05-02T12:58:29.677Z,60.90
2019-05-02T13:00:59.873Z,54.05
2019-05-02T13:03:35.794Z,53.10
2019-05-02T13:06:06.070Z,53.80
2019-05-02T13:08:38.038Z,52.13
2019-05-02T13:11:24.989Z,49.05
2019-05-02T13:13:55.270Z,45.25
2019-05-02T13:16:25.464Z,46.28
2019-05-02T13:18:57.205Z,42.15
2019-05-02T13:21:41.486Z,36.42
2019-05-02T13:24:07.477Z,34.65
2019-05-02T13:26:36.274Z,34.78
2019-05-02T13:29:06.538Z,35.48
2019-05-02T13:31:38.500Z,38.35
2019-05-02T13:34:22.093Z,37.83
2019-05-02T13:36:53.977Z,36.88
2019-05-02T13:39:39.616Z,34.75
2019-05-02T13:42:09.900Z,30.50
2019-05-02T13:44:44.282Z,28.70
2019-05-02T13:47:16.122Z,29.30
2019-05-02T13:49:54.097Z,25.68
2019-05-02T13:52:18.399Z,28.50
2019-05-02T13:54:49.235Z,24.92
2019-05-02T13:57:21.643Z,27.20
2019-05-02T13:59:52.732Z,23.22
2019-05-02T14:02:33.951Z,23.97
2019-05-02T14:05:07.579Z,24.18
2019-05-02T14:07:38.455Z,22.45
2019-05-02T14:10:11.942Z,22.27
2019-05-02T14:12:44.054Z,18.25
2019-05-02T14:15:14.871Z,19.85
2019-05-02T14:17:45.139Z,19.73
2019-05-02T14:20:22.278Z,18.80
2019-05-02T14:22:52.826Z,19.37
2019-05-02T14:25:23.492Z,19.73
2019-05-02T14:27:55.735Z,22.10
2019-05-02T14:30:37.228Z,21.07
2019-05-02T14:33:02.396Z,22.27
2019-05-02T14:35:39.190Z,21.65
2019-05-02T14:38:13.666Z,20.62
2019-05-02T14:40:52.896Z,19.65
2019-05-02T14:43:46.151Z,20.57
2019-05-02T14:46:13.769Z,20.60
2019-05-02T14:48:45.330Z,19.07
2019-05-02T14:51:16.880Z,20.60
2019-05-02T14:53:47.862Z,19.15
2019-05-02T14:56:22.911Z,19.50
2019-05-02T14:58:53.169Z,19.07
2019-05-02T15:01:26.157Z,19.98
2019-05-02T15:03:58.300Z,20.97
2019-05-02T15:06:27.241Z,19.90
2019-05-02T15:08:57.498Z,21.17
2019-05-02T15:11:32.201Z,21.45
2019-05-02T15:14:00.568Z,20.70
2019-05-02T15:16:40.369Z,22.37
2019-05-02T15:19:33.446Z,21.95
2019-05-02T15:24:37.501Z,22.02
2019-05-02T15:27:11.661Z,22.90
2019-05-02T15:29:37.827Z,22.42
2019-05-02T15:32:15.603Z,23.73
2019-05-02T15:35:04.644Z,21.60
2019-05-02T15:37:35.968Z,22.17
2019-05-02T15:42:38.457Z,21.42
2019-05-02T15:45:08.895Z,22.80
2019-05-02T15:47:41.655Z,22.27
2019-05-02T15:50:14.765Z,22.52
2019-05-02T15:52:44.732Z,22.60
2019-05-02T15:55:14.929Z,23.22
2019-05-02T15:57:46.373Z,22.52
2019-05-02T16:00:25.707Z,22.60
2019-05-02T16:02:56.312Z,22.40
2019-05-02T16:05:26.914Z,22.67
2019-05-02T16:08:05.267Z,21.37
2019-05-02T16:10:31.587Z,22.25
2019-05-02T16:13:01.346Z,21.65
2019-05-02T16:15:32.645Z,21.70
2019-05-02T16:18:05.150Z,20.45
2019-05-02T16:20:49.169Z,20.60
2019-05-02T16:23:27.381Z,20.55
2019-05-02T16:25:52.407Z,18.85
2019-05-02T16:28:22.890Z,18.73
2019-05-02T16:30:54.786Z,18.87
2019-05-02T16:33:25.181Z,17.70
2019-05-02T16:35:55.454Z,13.32
2019-05-02T16:38:26.791Z,12.73
2019-05-02T16:41:01.700Z,9.90
2019-05-02T16:43:32.766Z,8.98
2019-05-02T16:46:06.829Z,7.80
2019-05-02T16:48:39.052Z,6.67
2019-05-02T16:51:27.597Z,5.97
2019-05-02T16:53:42.709Z,5.65
2019-05-02T16:56:12.938Z,4.60
2019-05-02T16:58:47.086Z,4.20
2019-05-02T17:01:23.595Z,3.75
2019-05-02T17:03:47.883Z,4.17
2019-05-02T17:06:22.468Z,3.50
2019-05-02T17:08:58.669Z,3.70
2019-05-02T17:11:32.351Z,3.45
2019-05-02T17:14:06.879Z,3.67
2019-05-02T17:16:34.493Z,3.77
2019-05-02T17:19:04.698Z,3.05
2019-05-02T17:21:52.247Z,3.02
2019-05-02T17:24:06.774Z,2.90
2019-05-02T17:26:36.946Z,2.80
2019-05-02T17:29:07.160Z,2.70
2019-05-02T17:31:37.342Z,2.58
2019-05-02T17:34:07.879Z,2.60
2019-05-02T17:36:38.091Z,2.40
2019-05-02T17:39:08.468Z,2.47
2019-05-02T17:41:42.393Z,2.75
2019-05-02T17:44:12.855Z,2.98
2019-05-02T17:46:44.144Z,3.22
2019-05-02T17:49:14.590Z,3.22
2019-05-02T17:52:05.773Z,3.20
2019-05-02T17:54:34.337Z,3.10
2019-05-02T17:57:04.531Z,2.65
2019-05-02T17:59:37.619Z,3.17
2019-05-02T18:02:11.623Z,2.42
2019-05-02T18:04:38.550Z,2.75
2019-05-02T18:07:08.842Z,2.72
2019-05-02T18:09:39.014Z,2.90
2019-05-02T18:12:12.681Z,2.70
2019-05-02T18:14:42.158Z,3.47
2019-05-02T18:17:12.807Z,2.72
2019-05-02T18:19:43.090Z,2.42
2019-05-02T18:22:23.567Z,2.30
2019-05-02T18:24:46.456Z,2.50
2019-05-02T18:27:16.732Z,2.50
2019-05-02T18:29:47.194Z,2.52
2019-05-02T18:32:22.132Z,2.67
2019-05-02T18:34:51.764Z,2.62
2019-05-02T18:37:21.892Z,3.17
2019-05-02T18:39:55.860Z,3.10
2019-05-02T18:42:25.634Z,3.20
2019-05-02T18:44:56.079Z,3.40
2019-05-02T18:47:26.306Z,4.12
2019-05-02T18:50:01.810Z,3.90
2019-05-02T18:52:38.043Z,4.05
2019-05-02T18:55:02.154Z,3.83
2019-05-02T18:57:32.623Z,3.10
2019-05-02T19:00:03.368Z,3.52
2019-05-02T19:02:35.613Z,3.33
2019-05-02T19:05:13.543Z,3.27
2019-05-02T19:07:38.353Z,3.30
2019-05-02T19:10:08.539Z,3.27
2019-05-02T19:12:38.791Z,3.10
2019-05-02T19:15:09.211Z,4.20
2019-05-02T19:17:40.513Z,3.65
2019-05-02T19:20:22.066Z,3.95
2019-05-02T19:22:56.308Z,3.90
2019-05-02T19:25:23.894Z,3.67
2019-05-02T19:27:57.578Z,3.97
2019-05-02T19:30:33.055Z,4.12
2019-05-02T19:33:07.677Z,3.77
2019-05-02T19:35:37.681Z,3.85
2019-05-02T19:38:07.246Z,4.28
2019-05-02T19:40:37.717Z,4.03
2019-05-02T19:43:07.954Z,4.30
2019-05-02T19:45:38.202Z,3.60
2019-05-02T19:48:08.415Z,3.70
2019-05-02T19:50:43.362Z,3.42
2019-05-02T19:53:18.009Z,3.60
2019-05-02T19:55:43.053Z,3.47
2019-05-02T19:58:17.237Z,3.70
2019-05-02T20:00:47.514Z,4.30
2019-05-02T20:03:21.647Z,3.77
2019-05-02T20:05:51.869Z,3.35
2019-05-02T20:08:24.519Z,3.58
2019-05-02T20:10:58.340Z,3.83
2019-05-02T20:13:29.648Z,3.20
2019-05-02T20:16:09.574Z,3.37
2019-05-02T20:18:43.819Z,3.62
2019-05-02T20:21:23.230Z,3.40
2019-05-02T20:23:45.146Z,3.62
2019-05-02T20:26:17.151Z,3.45
2019-05-02T20:31:17.090Z,3.98
2019-05-02T20:33:47.266Z,4.28
2019-05-02T20:36:17.541Z,4.30
2019-05-02T20:38:47.802Z,4.03
2019-05-02T20:41:18.049Z,4.15
2019-05-02T20:43:48.362Z,4.70
2019-05-02T20:46:18.596Z,4.00
2019-05-02T20:48:52.593Z,4.08
2019-05-02T20:51:24.109Z,4.12
2019-05-02T20:53:54.464Z,4.23
2019-05-02T20:56:24.687Z,4.37
2019-05-02T20:58:54.989Z,4.15
2019-05-02T21:01:25.285Z,4.20
2019-05-02T21:03:57.729Z,4.58
2019-05-02T21:06:40.890Z,5.60
2019-05-02T21:09:07.786Z,4.42
2019-05-02T21:12:02.320Z,4.97
2019-05-02T21:14:32.718Z,4.75
2019-05-02T21:17:03.461Z,4.50
2019-05-02T21:19:33.759Z,4.25
2019-05-02T21:22:06.389Z,4.58
2019-05-02T21:24:36.687Z,5.08
2019-05-02T21:27:07.001Z,4.53
2019-05-02T21:29:37.316Z,5.07
2019-05-02T21:32:07.641Z,4.53
2019-05-02T21:34:37.930Z,4.55
2019-05-02T21:37:08.237Z,5.03
2019-05-02T21:39:38.683Z,5.42
2019-05-02T21:42:08.929Z,5.57
2019-05-02T21:44:39.211Z,5.58
2019-05-02T21:47:09.792Z,6.35
2019-05-02T21:49:43.606Z,6.47
2019-05-02T21:52:31.865Z,6.65
2019-05-02T21:55:07.732Z,5.75
2019-05-02T21:57:38.036Z,5.58
2019-05-02T22:00:11.696Z,5.35
2019-05-02T22:02:43.580Z,5.30
2019-05-02T22:05:13.874Z,5.12
2019-05-02T22:07:44.095Z,5.80
2019-05-02T22:10:14.298Z,6.58
2019-05-02T22:12:44.669Z,6.03
2019-05-02T22:15:14.951Z,6.90
2019-05-02T22:17:45.369Z,6.28
2019-05-02T22:20:15.657Z,6.83
2019-05-02T22:22:45.978Z,6.90
2019-05-02T22:25:16.199Z,6.97
2019-05-02T22:27:46.433Z,6.42
2019-05-02T22:30:16.756Z,6.92
2019-05-02T22:32:47.089Z,6.75
2019-05-02T22:35:17.373Z,6.37
2019-05-02T22:37:49.247Z,6.10
2019-05-02T22:40:19.474Z,6.37
2019-05-02T22:42:49.783Z,5.83
2019-05-02T22:45:21.798Z,5.47
2019-05-02T22:47:52.291Z,5.50
2019-05-02T22:50:22.508Z,5.70
2019-05-02T22:52:52.747Z,5.33
2019-05-02T22:55:23.247Z,5.62
2019-05-02T22:57:53.486Z,5.97
2019-05-02T23:00:23.824Z,5.40
2019-05-02T23:02:54.160Z,5.65
2019-05-02T23:05:24.400Z,5.55
2019-05-02T23:07:54.671Z,5.35
2019-05-02T23:10:24.949Z,5.67
2019-05-02T23:12:55.184Z,5.40
2019-05-02T23:15:25.393Z,6.10
2019-05-02T23:17:55.702Z,5.58
2019-05-02T23:20:26.004Z,5.72
2019-05-02T23:23:14.992Z,5.22
2019-05-02T23:25:52.764Z,5.42
2019-05-02T23:28:24.641Z,5.30
2019-05-02T23:30:54.920Z,4.70
2019-05-02T23:33:26.788Z,6.00
2019-05-02T23:35:57.007Z,5.25
2019-05-02T23:38:27.376Z,6.37
2019-05-02T23:40:58.727Z,6.28
2019-05-02T23:43:28.965Z,5.60
2019-05-02T23:45:59.251Z,6.17
2019-05-02T23:48:29.564Z,6.30
2019-05-02T23:51:02.568Z,6.60
2019-05-02T23:53:33.009Z,5.70
2019-05-02T23:56:03.221Z,4.47
2019-05-02T23:58:36.095Z,5.45
